Nearby METAR Reports

KLNK - Lincoln, Nebraska, USA
Distance from station: WNW 8mi, 13km
Updated: Fri, 25-Sep-2020 2:54am CDT
Clear
Clear
 Wind from S
Wind: S 6 mph , 9 km/h
Temperature: 64°F , 18°C
Dew Point: 61°F , 16°C
Humidity: 88%
Barometer: 29.78 inHg , 1008.5 hPa
Clouds: Clear
Visibility: 10 miles , 16 km
2020/09/25 07:54 KLNK 250754Z AUTO 17005KT 10SM CLR 18/16 A2978 RMK AO2 SLP075 T01780156
KAHQ - Wahoo, Nebraska, USA
Distance from station: N 31mi, 49km
Updated: Fri, 25-Sep-2020 3:35am CDT
Clear
Clear
 Wind from SE
Wind: SE 5 mph , 7 km/h
Temperature: 59°F , 15°C
Dew Point: 59°F , 15°C
Humidity: 100%
Barometer: 29.77 inHg , 1008.1 hPa
Clouds: Clear
Visibility: 7 miles , 11 km
2020/09/25 08:35 KAHQ 250835Z AUTO 14004KT 7SM CLR 15/15 A2977 RMK AO2 T01450145
 
KBIE - Beatrice Municip, Nebraska, USA
Distance from station: S 36mi, 57km
Updated: Fri, 25-Sep-2020 3:35am CDT
Clear
Clear
 Wind from SSE
Wind: SSE 5 mph , 7 km/h
Temperature: 64°F , 18°C
Dew Point: 61°F , 16°C
Humidity: 88%
Barometer: 29.79 inHg , 1008.8 hPa
Clouds: Clear
Visibility: 10 miles , 16 km
2020/09/25 08:35 KBIE 250835Z AUTO 16004KT 10SM CLR 18/16 A2979 RMK AO2 T01800164
KMLE - Omaha/Millard, Nebraska, USA
Distance from station: NE 39mi, 63km
Updated: Fri, 25-Sep-2020 3:35am CDT
Clear
Clear
 Wind from SE
Wind: SE 3 mph , 6 km/h
Temperature: 64°F , 18°C
Dew Point: 61°F , 16°C
Humidity: 88%
Barometer: 29.78 inHg , 1008.5 hPa
Clouds: Clear
Visibility: 10 miles , 16 km
2020/09/25 08:35 KMLE 250835Z AUTO 14003KT 10SM CLR 18/16 A2978 RMK AO2 T01800160
 
KPMV - Plattsmouth Muni, Nebraska, USA
Distance from station: ENE 39mi, 63km
Updated: Fri, 25-Sep-2020 3:35am CDT
Clear
Clear
 Wind from SSE
Wind: SSE 9 mph , 15 km/h
Temperature: 64°F , 18°C
Dew Point: 63°F , 17°C
Humidity: 94%
Barometer: 29.79 inHg , 1008.8 hPa
Clouds: Clear
Visibility: 10 miles , 16 km
2020/09/25 08:35 KPMV 250835Z AUTO 15008KT 10SM CLR 18/17 A2979 RMK AO2 T01790165
KAFK - Nebraska City, Nebraska, USA
Distance from station: ESE 43mi, 69km
Updated: Fri, 25-Sep-2020 3:35am CDT
Clear
Clear
 Wind from S
Wind: S 8 mph , 13 km/h
Temperature: 64°F , 18°C
Dew Point: 64°F , 18°C
Humidity: 100%
Barometer: 29.81 inHg , 1009.5 hPa
Clouds: Clear
Visibility: 10 miles , 16 km
2020/09/25 08:35 KAFK 250835Z AUTO 18007KT 10SM CLR 18/18 A2981 RMK AO2 T01750175
 
KOFF - Offutt Afb/Belle, Nebraska, USA
Distance from station: ENE 44mi, 70km
Updated: Fri, 25-Sep-2020 2:56am CDT
Clear
Clear
 Wind from SSE
Wind: SSE 6 mph , 9 km/h
Temperature: 63°F , 17°C
Dew Point: 61°F , 16°C
Humidity: 94%
Barometer: 29.79 inHg , 1008.8 hPa
Clouds: Clear
Visibility: 10 miles , 16 km
2020/09/25 07:56 KOFF 250756Z AUTO 15005KT 10SM CLR 17/16 A2979 RMK AO2 SLP085 T01680155 $
KFET - Fremont Muni Arp, Nebraska, USA
Distance from station: N 46mi, 74km
Updated: Fri, 25-Sep-2020 3:35am CDT
Clear
Clear
 Wind from SE
Wind: SE 5 mph , 7 km/h
Temperature: 64°F , 18°C
Dew Point: 61°F , 16°C
Humidity: 88%
Barometer: 29.76 inHg , 1007.8 hPa
Clouds: Clear
Visibility: 10 miles , 16 km
2020/09/25 08:35 KFET 250835Z AUTO 14004KT 10SM CLR 18/16 A2976 RMK AO2 T01760158
 
KBTA - Blair Muni, Nebraska, USA
Distance from station: NNE 51mi, 82km
Updated: Fri, 25-Sep-2020 3:35am CDT
Clear
Clear
 Wind from SSE
Wind: SSE 6 mph , 9 km/h
Temperature: 64°F , 18°C
Dew Point: 57°F , 14°C
Humidity: 78%
Barometer: 29.78 inHg , 1008.5 hPa
Clouds: Clear
Visibility: 10 miles , 16 km
2020/09/25 08:35 KBTA 250835Z AUTO 16005KT 10SM CLR 18/14 A2978 RMK AO2 T01770142
KJYR - York, Nebraska, USA
Distance from station: W 52mi, 84km
Updated: Fri, 25-Sep-2020 3:35am CDT
Light rain, Clear
Light rain, Clear
 Wind from S
Wind: S 8 mph , 13 km/h
Temperature: 63°F , 17°C
Dew Point: 61°F , 16°C
Humidity: 94%
Barometer: 29.77 inHg , 1008.1 hPa
Summary: Light Rain
Clouds: Clear
Visibility: 10 miles , 16 km
2020/09/25 08:35 KJYR 250835Z AUTO 18007KT 10SM -RA CLR 17/16 A2977 RMK AO2
 
KOMA - Omaha/Eppley, Nebraska, USA
Distance from station: NE 53mi, 85km
Updated: Fri, 25-Sep-2020 2:52am CDT
Clear
Clear
 Wind from SSE
Wind: SSE 8 mph , 13 km/h
Temperature: 64°F , 18°C
Dew Point: 63°F , 17°C
Humidity: 94%
Barometer: 29.78 inHg , 1008.5 hPa
Clouds: Clear
Visibility: 10 miles , 16 km
2020/09/25 07:52 KOMA 250752Z 15007KT 10SM CLR 18/17 A2978 RMK AO2 SLP077 T01780167
KOLU - Columbus Muni, Nebraska, USA
Distance from station: NW 58mi, 93km
Updated: Fri, 25-Sep-2020 2:56am CDT
Clear
Clear
 Wind from E
Wind: E 3 mph , 6 km/h
Temperature: 54°F , 12°C
Dew Point: 54°F , 12°C
Humidity: 100%
Barometer: 29.77 inHg , 1008.1 hPa
Clouds: Clear
Visibility: 8 miles , 13 km
2020/09/25 07:56 KOLU 250756Z AUTO 10003KT 8SM CLR 12/12 A2977 RMK AO2 SLP073 T01220117